createdAt,value
2022-12-09T00:01:31.326Z,94.80
2022-12-09T00:04:58.521Z,71.00
2022-12-09T00:08:25.490Z,61.40
2022-12-09T00:11:53.800Z,75.70
2022-12-09T00:15:20.941Z,98.40
2022-12-09T00:18:48.360Z,90.10
2022-12-09T00:22:15.284Z,99.50
2022-12-09T00:25:42.295Z,78.70
2022-12-09T00:29:09.914Z,67.40
2022-12-09T00:32:38.010Z,75.10
2022-12-09T00:36:09.745Z,76.60
2022-12-09T00:39:36.979Z,60.00
2022-12-09T00:43:04.268Z,63.30
2022-12-09T00:46:31.084Z,70.90
2022-12-09T00:49:58.309Z,75.60
2022-12-09T00:53:26.124Z,85.00
2022-12-09T00:56:53.876Z,78.10
2022-12-09T01:00:21.938Z,61.90
2022-12-09T01:03:50.263Z,57.60
2022-12-09T01:07:17.297Z,63.60
2022-12-09T01:10:45.458Z,60.40
2022-12-09T01:14:12.300Z,69.30
2022-12-09T01:17:40.698Z,55.50
2022-12-09T01:21:08.126Z,51.00
2022-12-09T01:24:34.926Z,73.80
2022-12-09T01:28:01.784Z,62.10
2022-12-09T01:31:29.398Z,55.10
2022-12-09T01:34:56.530Z,58.00
2022-12-09T01:38:23.227Z,54.90
2022-12-09T01:41:51.466Z,66.80
2022-12-09T01:45:40.758Z,77.60
2022-12-09T01:49:10.846Z,76.40
2022-12-09T01:52:38.343Z,70.00
2022-12-09T01:56:10.081Z,70.90
2022-12-09T01:59:37.825Z,62.10
2022-12-09T02:03:07.174Z,94.00
2022-12-09T02:06:36.433Z,60.20
2022-12-09T02:10:11.427Z,49.90
2022-12-09T02:13:48.467Z,65.10
2022-12-09T02:17:35.036Z,65.40
2022-12-09T02:21:09.414Z,61.60
2022-12-09T02:24:42.499Z,65.60
2022-12-09T02:28:34.617Z,59.00
2022-12-09T02:32:22.198Z,61.40
2022-12-09T02:35:55.016Z,69.60
2022-12-09T02:39:25.672Z,70.80
2022-12-09T02:42:53.828Z,66.00
2022-12-09T02:46:22.929Z,61.20
2022-12-09T02:49:56.181Z,66.10
2022-12-09T02:53:25.903Z,65.30
2022-12-09T02:56:57.863Z,66.70
2022-12-09T03:00:27.721Z,64.30
2022-12-09T03:03:56.706Z,63.60
2022-12-09T03:07:32.139Z,62.30
2022-12-09T03:11:02.303Z,65.30
2022-12-09T03:14:34.674Z,67.00
2022-12-09T03:18:05.950Z,64.80
2022-12-09T03:21:36.568Z,69.80
2022-12-09T03:25:09.026Z,72.00
2022-12-09T03:28:42.280Z,70.40
2022-12-09T03:32:11.957Z,65.10
2022-12-09T03:39:11.088Z,63.60
2022-12-09T03:42:44.242Z,66.40
2022-12-09T03:46:11.516Z,63.70
2022-12-09T03:49:40.382Z,72.00
2022-12-09T03:53:14.194Z,64.30
2022-12-09T03:56:45.503Z,68.20
2022-12-09T04:00:14.937Z,66.40
2022-12-09T04:03:45.139Z,61.60
2022-12-09T04:10:42.294Z,61.10
2022-12-09T04:14:15.113Z,59.80
2022-12-09T04:17:42.690Z,66.50
2022-12-09T04:21:13.040Z,64.70
2022-12-09T04:24:41.172Z,61.30
2022-12-09T04:28:08.135Z,66.70
2022-12-09T04:31:35.272Z,63.20
2022-12-09T04:35:02.965Z,52.90
2022-12-09T04:38:30.171Z,57.00
2022-12-09T04:41:56.910Z,55.80
2022-12-09T04:45:24.087Z,61.10
2022-12-09T04:48:50.882Z,56.30
2022-12-09T04:52:19.890Z,73.00
2022-12-09T04:55:46.752Z,70.00
2022-12-09T04:59:14.723Z,65.40
2022-12-09T05:02:42.301Z,75.00
2022-12-09T05:06:34.615Z,77.00
2022-12-09T05:20:02.712Z,61.50
2022-12-09T05:23:29.805Z,67.80
2022-12-09T05:26:56.617Z,66.20
2022-12-09T05:30:23.563Z,79.40
2022-12-09T05:33:52.473Z,90.60
2022-12-09T05:37:20.009Z,96.20
2022-12-09T05:40:47.233Z,103.80
2022-12-09T05:44:14.662Z,85.20
2022-12-09T05:47:42.536Z,88.00
2022-12-09T05:51:13.092Z,86.20
2022-12-09T05:54:40.092Z,103.70
2022-12-09T05:58:06.943Z,104.60
2022-12-09T06:01:33.653Z,86.40
2022-12-09T06:05:00.605Z,93.90
2022-12-09T06:08:28.297Z,114.90
2022-12-09T06:11:55.275Z,94.10
2022-12-09T06:15:24.793Z,86.50
2022-12-09T06:18:55.226Z,110.90
2022-12-09T06:22:22.465Z,107.00
2022-12-09T06:25:49.727Z,92.00
2022-12-09T06:29:16.894Z,83.30
2022-12-09T06:32:43.821Z,85.40
2022-12-09T06:36:12.625Z,116.10
2022-12-09T06:39:39.618Z,80.10
2022-12-09T06:43:06.849Z,68.80
2022-12-09T06:46:33.755Z,85.60
2022-12-09T06:50:06.697Z,75.80
2022-12-09T06:53:34.807Z,91.30
2022-12-09T06:57:01.876Z,89.20
2022-12-09T07:00:29.202Z,81.20
2022-12-09T07:03:58.418Z,70.20
2022-12-09T07:07:25.864Z,79.00
2022-12-09T07:10:56.553Z,76.20
2022-12-09T07:14:24.074Z,81.10
2022-12-09T07:17:51.301Z,88.00
2022-12-09T07:21:20.785Z,91.00
2022-12-09T07:24:48.169Z,80.20
2022-12-09T07:28:15.109Z,92.80
2022-12-09T07:31:42.378Z,135.20
2022-12-09T07:35:11.412Z,113.30
2022-12-09T07:38:38.266Z,92.10
2022-12-09T07:42:05.386Z,102.10
2022-12-09T07:45:44.930Z,98.10
2022-12-09T07:49:13.238Z,108.20
2022-12-09T07:52:40.367Z,111.80
2022-12-09T07:56:11.820Z,97.60
2022-12-09T07:59:39.138Z,95.30
2022-12-09T08:03:06.749Z,106.00
2022-12-09T08:06:34.178Z,106.70
2022-12-09T08:10:01.451Z,96.10
2022-12-09T08:13:29.222Z,114.70
2022-12-09T08:16:56.330Z,129.90
2022-12-09T08:20:28.773Z,99.10
2022-12-09T08:23:58.285Z,102.80
2022-12-09T08:27:25.384Z,104.40
2022-12-09T08:30:52.910Z,108.40
2022-12-09T08:34:20.624Z,106.50
2022-12-09T08:37:48.499Z,105.80
2022-12-09T08:41:17.696Z,107.90
2022-12-09T08:44:45.298Z,96.40
2022-12-09T08:48:12.126Z,87.40
2022-12-09T08:51:40.530Z,95.20
2022-12-09T08:55:08.797Z,106.00
2022-12-09T08:58:36.222Z,79.90
2022-12-09T09:02:03.501Z,79.50
2022-12-09T09:05:31.095Z,93.80
2022-12-09T09:08:59.210Z,90.50
2022-12-09T09:12:26.127Z,87.40
2022-12-09T09:15:53.534Z,171.90
2022-12-09T09:19:22.596Z,106.70
2022-12-09T09:22:50.021Z,101.80
2022-12-09T09:26:19.269Z,90.20
2022-12-09T09:29:46.306Z,93.90
2022-12-09T09:33:13.210Z,98.90
2022-12-09T09:36:41.409Z,105.70
2022-12-09T09:40:12.729Z,112.90
2022-12-09T09:53:55.405Z,86.40
2022-12-09T09:57:29.917Z,72.30
2022-12-09T10:01:04.224Z,83.40
2022-12-09T10:04:42.326Z,77.90
2022-12-09T10:08:34.091Z,79.10
2022-12-09T10:12:12.219Z,82.60
2022-12-09T10:15:47.071Z,81.10
2022-12-09T10:19:22.548Z,85.10
2022-12-09T10:22:53.932Z,85.00
2022-12-09T10:26:25.559Z,82.50
2022-12-09T10:29:59.081Z,83.90
2022-12-09T10:33:30.734Z,84.60
2022-12-09T10:36:58.473Z,89.20
2022-12-09T10:40:32.847Z,91.90
2022-12-09T10:44:22.475Z,102.60
2022-12-09T10:47:54.092Z,113.40
2022-12-09T10:51:24.981Z,100.60
2022-12-09T10:54:52.307Z,105.20
2022-12-09T10:58:22.446Z,100.00
2022-12-09T11:01:54.964Z,111.30
2022-12-09T11:05:28.777Z,122.70
2022-12-09T11:08:59.079Z,121.10
2022-12-09T11:12:41.039Z,116.80
2022-12-09T11:16:09.921Z,98.20
2022-12-09T11:19:40.043Z,110.90
2022-12-09T11:23:16.347Z,103.40
2022-12-09T11:26:43.420Z,87.20
2022-12-09T11:30:17.111Z,79.50
2022-12-09T11:33:54.618Z,87.80
2022-12-09T11:37:22.431Z,83.80
2022-12-09T11:41:02.721Z,91.40
2022-12-09T11:44:33.052Z,88.60
2022-12-09T11:48:31.882Z,115.80
2022-12-09T11:52:06.795Z,105.00
2022-12-09T11:55:35.290Z,96.40
2022-12-09T11:59:06.034Z,98.30
2022-12-09T12:02:41.610Z,97.80
2022-12-09T12:06:16.214Z,118.40
2022-12-09T12:09:49.628Z,90.40
2022-12-09T12:13:24.422Z,86.80
2022-12-09T12:16:58.388Z,88.70
2022-12-09T12:20:38.012Z,106.90
2022-12-09T12:27:47.745Z,93.30
2022-12-09T12:31:30.843Z,108.70
2022-12-09T12:35:31.287Z,95.30
2022-12-09T12:39:07.426Z,94.00
2022-12-09T12:43:09.683Z,96.90
2022-12-09T12:46:53.802Z,84.30
2022-12-09T12:50:33.245Z,128.70
2022-12-09T12:54:16.452Z,150.40
2022-12-09T12:57:49.104Z,304.30
2022-12-09T13:01:25.567Z,128.40
2022-12-09T13:04:58.454Z,258.00
2022-12-09T13:08:31.197Z,133.20
2022-12-09T13:12:12.861Z,94.50
2022-12-09T13:15:44.462Z,96.40
2022-12-09T13:19:21.544Z,108.90
2022-12-09T13:22:54.235Z,95.40
2022-12-09T13:26:34.419Z,102.90
2022-12-09T13:30:07.813Z,109.10
2022-12-09T13:33:51.131Z,89.60
2022-12-09T13:38:01.106Z,95.80
2022-12-09T13:42:03.185Z,87.00
2022-12-09T13:45:35.577Z,91.60
2022-12-09T13:49:11.963Z,83.40
2022-12-09T13:52:45.924Z,81.50
2022-12-09T13:56:26.336Z,73.60
2022-12-09T13:59:55.089Z,88.60
2022-12-09T14:03:30.711Z,88.80
2022-12-09T14:07:09.698Z,91.40
2022-12-09T14:10:44.159Z,86.10
2022-12-09T14:14:57.285Z,83.00
2022-12-09T14:18:33.307Z,92.00
2022-12-09T14:22:31.144Z,97.30
2022-12-09T14:26:06.429Z,107.60
2022-12-09T14:29:55.239Z,94.70
2022-12-09T14:33:31.786Z,75.30
2022-12-09T14:37:18.162Z,93.90
2022-12-09T14:40:55.996Z,86.50
2022-12-09T14:44:31.918Z,108.20
2022-12-09T14:47:58.925Z,117.20
2022-12-09T14:51:29.265Z,104.80
2022-12-09T14:54:58.805Z,117.30
2022-12-09T15:01:57.801Z,108.10
2022-12-09T15:05:24.882Z,98.90
2022-12-09T15:08:54.513Z,109.90
2022-12-09T15:15:47.980Z,114.30
2022-12-09T15:19:57.983Z,92.00
2022-12-09T15:23:20.920Z,148.20
2022-12-09T15:26:59.730Z,155.40
2022-12-09T15:30:31.149Z,102.50
2022-12-09T15:34:00.099Z,87.20
2022-12-09T15:37:29.869Z,91.30
2022-12-09T15:41:17.126Z,83.40
2022-12-09T15:44:48.262Z,125.60
2022-12-09T15:48:19.778Z,261.20
2022-12-09T15:51:48.283Z,208.80
2022-12-09T15:55:20.784Z,176.20
2022-12-09T15:58:50.692Z,174.20
2022-12-09T16:02:26.550Z,143.60
2022-12-09T16:05:57.657Z,129.80
2022-12-09T16:09:25.073Z,150.50
2022-12-09T16:13:07.462Z,133.10
2022-12-09T16:16:41.396Z,135.10
2022-12-09T16:20:41.287Z,105.70
2022-12-09T16:24:15.011Z,108.00
2022-12-09T16:27:48.592Z,105.30
2022-12-09T16:31:20.716Z,121.40
2022-12-09T16:34:49.748Z,117.80
2022-12-09T16:38:21.002Z,92.50
2022-12-09T16:42:01.756Z,127.60
2022-12-09T16:45:34.972Z,123.20
2022-12-09T16:49:07.786Z,115.00
2022-12-09T16:52:34.577Z,129.50
2022-12-09T16:56:04.282Z,125.10
2022-12-09T16:59:37.540Z,100.60
2022-12-09T17:03:07.291Z,104.60
2022-12-09T17:06:34.005Z,116.80
2022-12-09T17:10:00.658Z,110.20
2022-12-09T17:13:27.534Z,98.40
2022-12-09T17:16:54.285Z,96.80
2022-12-09T17:20:21.662Z,93.20
2022-12-09T17:23:49.090Z,95.80
2022-12-09T17:27:16.138Z,100.80
2022-12-09T17:30:42.760Z,104.00
2022-12-09T17:34:09.490Z,96.10
2022-12-09T17:37:36.197Z,106.40
2022-12-09T17:41:08.414Z,110.60
2022-12-09T17:44:36.030Z,89.90
2022-12-09T17:48:03.275Z,95.80
2022-12-09T17:51:35.640Z,98.10
2022-12-09T17:55:03.446Z,90.80
2022-12-09T17:58:30.177Z,89.40
2022-12-09T18:01:57.022Z,101.50
2022-12-09T18:05:23.730Z,90.70
2022-12-09T18:08:50.554Z,77.80
2022-12-09T18:12:17.383Z,87.10
2022-12-09T18:15:44.282Z,93.80
2022-12-09T18:19:15.294Z,84.80
2022-12-09T18:22:42.517Z,94.50
2022-12-09T18:26:11.354Z,94.00
2022-12-09T18:29:41.487Z,97.70
2022-12-09T18:33:08.256Z,98.00
2022-12-09T18:36:35.318Z,100.30
2022-12-09T18:40:02.065Z,97.10
2022-12-09T18:43:30.256Z,91.80
2022-12-09T18:46:57.081Z,96.50
2022-12-09T18:50:23.892Z,88.90
2022-12-09T18:53:50.940Z,109.90
2022-12-09T18:57:17.780Z,102.20
2022-12-09T19:00:44.682Z,96.60
2022-12-09T19:04:16.244Z,86.40
2022-12-09T19:07:43.287Z,98.60
2022-12-09T19:11:10.107Z,93.10
2022-12-09T19:14:38.565Z,72.40
2022-12-09T19:18:05.761Z,73.10
2022-12-09T19:21:32.576Z,92.60
2022-12-09T19:24:59.221Z,86.90
2022-12-09T19:28:27.037Z,88.00
2022-12-09T19:31:54.965Z,110.50
2022-12-09T19:35:21.848Z,199.90
2022-12-09T19:38:48.556Z,189.80
2022-12-09T19:42:15.287Z,274.80
2022-12-09T19:45:42.026Z,218.20
2022-12-09T19:49:09.352Z,80.80
2022-12-09T19:52:36.066Z,92.50
2022-12-09T19:56:04.464Z,90.20
2022-12-09T19:59:31.513Z,92.80
2022-12-09T20:02:59.654Z,90.40
2022-12-09T20:06:27.566Z,91.20
2022-12-09T20:09:54.486Z,99.50
2022-12-09T20:13:21.385Z,105.80
2022-12-09T20:16:48.551Z,79.40
2022-12-09T20:20:15.652Z,106.00
2022-12-09T20:23:43.768Z,100.00
2022-12-09T20:27:11.117Z,102.60
2022-12-09T20:30:37.836Z,112.60
2022-12-09T20:34:07.416Z,118.00
2022-12-09T20:37:34.757Z,113.00
2022-12-09T20:41:05.515Z,101.00
2022-12-09T20:44:33.336Z,119.30
2022-12-09T20:48:00.097Z,102.60
2022-12-09T20:51:28.460Z,103.20
2022-12-09T20:54:55.499Z,100.20
2022-12-09T20:58:22.304Z,107.20
2022-12-09T21:01:49.115Z,111.50
2022-12-09T21:05:16.058Z,122.20
2022-12-09T21:08:43.278Z,106.30
2022-12-09T21:12:10.233Z,106.00
2022-12-09T21:15:36.922Z,116.50
2022-12-09T21:19:07.297Z,123.20
2022-12-09T21:22:34.111Z,129.50
2022-12-09T21:26:06.326Z,125.50
2022-12-09T21:29:33.015Z,123.90
2022-12-09T21:32:59.851Z,139.20
2022-12-09T21:36:30.053Z,117.70
2022-12-09T21:39:56.905Z,128.40
2022-12-09T21:43:23.652Z,129.40
2022-12-09T21:46:50.413Z,140.30
2022-12-09T21:50:17.443Z,131.40
2022-12-09T21:53:44.722Z,119.30
2022-12-09T21:57:11.770Z,148.40
2022-12-09T22:00:39.854Z,140.50
2022-12-09T22:04:09.541Z,132.70
2022-12-09T22:07:36.732Z,169.40
2022-12-09T22:11:08.019Z,130.80
2022-12-09T22:14:35.405Z,130.90
2022-12-09T22:18:02.411Z,133.00
2022-12-09T22:21:31.038Z,136.80
2022-12-09T22:24:58.214Z,140.30
2022-12-09T22:28:25.282Z,135.80
2022-12-09T22:31:51.994Z,133.40
2022-12-09T22:35:19.027Z,141.10
2022-12-09T22:38:46.124Z,127.40
2022-12-09T22:42:13.728Z,128.30
2022-12-09T22:45:40.660Z,131.70
2022-12-09T22:49:09.807Z,129.70
2022-12-09T22:52:36.804Z,138.20
2022-12-09T22:56:04.008Z,141.20
2022-12-09T22:59:31.179Z,135.60
2022-12-09T23:02:57.990Z,141.30
2022-12-09T23:06:25.503Z,154.60
2022-12-09T23:09:52.184Z,133.70
2022-12-09T23:13:19.243Z,120.90
2022-12-09T23:16:46.566Z,141.40
2022-12-09T23:20:14.451Z,108.80
2022-12-09T23:23:42.139Z,154.40
2022-12-09T23:27:08.877Z,148.50
2022-12-09T23:30:36.346Z,142.80
2022-12-09T23:34:04.069Z,156.50
2022-12-09T23:37:31.746Z,142.60
2022-12-09T23:40:58.657Z,155.50
2022-12-09T23:44:25.669Z,158.00
2022-12-09T23:47:52.313Z,164.50
2022-12-09T23:51:21.385Z,166.30
2022-12-09T23:54:48.190Z,167.40
2022-12-09T23:58:15.431Z,158.40
